Time;durP1;ratioP1;P1;durP2;ratioP2;P2;SDS_P1;SDS_P2;PMS_P1;PMS_P2;Temp;Humidity;BMP_temperature;BMP_pressure;BME280_temperature;BME280_humidity;BME280_pressure;Samples;Min_cycle;Max_cycle;Signal;HPM_P1;HPM_P2
2021/04/03 00:00:45;;;;;;;9.40;3.90;;;;;;;4.97;63.08;99278.91;5030903;28;20033;-70
2021/04/03 00:03:12;;;;;;;10.35;4.28;;;;;;;4.97;62.61;99279.72;5053599;22;20037;-72
2021/04/03 00:05:39;;;;;;;11.25;4.43;;;;;;;4.99;61.96;99285.78;5023631;28;20044;-73
2021/04/03 00:08:06;;;;;;;7.53;4.10;;;;;;;5.04;62.18;99291.53;5015871;28;20034;-73
2021/04/03 00:10:51;;;;;;;10.07;4.18;;;;;;;5.00;61.75;99283.94;5013624;28;20029;-72
2021/04/03 00:13:18;;;;;;;13.00;4.35;;;;;;;5.02;61.76;99284.63;5012255;28;20538;-73
2021/04/03 00:15:44;;;;;;;12.73;4.18;;;;;;;4.87;61.60;99283.50;4998082;28;20030;-73
2021/04/03 00:18:12;;;;;;;12.48;3.90;;;;;;;5.00;61.60;99284.81;5013512;28;20095;-73
2021/04/03 00:20:37;;;;;;;9.50;3.90;;;;;;;4.85;61.50;99302.44;5013075;28;20045;-72
2021/04/03 00:23:03;;;;;;;11.45;4.03;;;;;;;4.89;61.46;99298.44;5005225;28;20038;-73
2021/04/03 00:25:30;;;;;;;8.02;3.75;;;;;;;4.89;61.71;99306.47;4994170;28;20022;-73
2021/04/03 00:27:55;;;;;;;10.35;4.60;;;;;;;4.81;61.71;99287.66;5013404;28;20038;-73
2021/04/03 00:30:21;;;;;;;9.15;3.60;;;;;;;4.82;61.31;99287.50;5038518;28;20376;-73
2021/04/03 00:32:52;;;;;;;8.85;3.85;;;;;;;4.85;61.52;99302.44;5013068;28;22048;-73
2021/04/03 00:35:31;;;;;;;10.82;3.75;;;;;;;4.92;60.96;99308.00;5004934;28;20091;-73
2021/04/03 00:37:57;;;;;;;8.43;3.55;;;;;;;4.78;61.27;99287.97;4993562;28;20073;-73
2021/04/03 00:40:26;;;;;;;7.43;3.63;;;;;;;4.72;61.19;99293.94;4994238;28;20117;-73
2021/04/03 00:42:52;;;;;;;8.25;3.97;;;;;;;4.73;60.88;99282.22;5011099;28;20573;-73
2021/04/03 00:45:19;;;;;;;9.30;4.03;;;;;;;4.85;60.92;99294.41;5013317;28;20030;-73
2021/04/03 00:47:45;;;;;;;7.97;4.07;;;;;;;4.86;61.18;99288.03;4998102;28;20037;-73
2021/04/03 00:50:12;;;;;;;9.80;3.67;;;;;;;4.81;61.37;99282.28;5015993;28;20042;-73
2021/04/03 00:52:38;;;;;;;7.78;3.53;;;;;;;4.90;60.91;99288.56;5000263;28;20402;-73
2021/04/03 00:55:05;;;;;;;9.25;3.63;;;;;;;4.88;60.56;99274.47;4995267;28;20033;-73
2021/04/03 00:57:31;;;;;;;6.88;3.55;;;;;;;4.92;60.85;99290.09;5012704;28;20060;-73
2021/04/03 00:59:57;;;;;;;7.57;3.55;;;;;;;4.91;60.87;99276.84;5022633;28;20064;-72
2021/04/03 01:02:22;;;;;;;9.30;3.67;;;;;;;4.97;60.48;99284.25;5006823;28;20037;-73
2021/04/03 01:04:47;;;;;;;10.13;3.22;;;;;;;4.93;60.97;99281.06;5012387;28;20068;-73
2021/04/03 01:07:13;;;;;;;8.38;3.75;;;;;;;4.93;60.71;99275.69;5011887;28;20055;-73
2021/04/03 01:09:39;;;;;;;8.23;3.78;;;;;;;5.02;60.91;99287.31;5011749;28;20030;-72
2021/04/03 01:12:32;;;;;;;6.72;3.45;;;;;;;5.06;60.51;99283.34;5001125;28;20049;-73
2021/04/03 01:15:00;;;;;;;8.27;3.35;;;;;;;4.99;60.90;99288.47;4994283;28;20053;-73
2021/04/03 01:17:50;;;;;;;7.07;3.63;;;;;;;4.98;60.91;99286.81;5014752;28;20068;-72
2021/04/03 01:20:45;;;;;;;5.78;3.33;;;;;;;5.00;60.90;99289.31;5004484;28;20384;-73
2021/04/03 01:23:51;;;;;;;9.00;3.40;;;;;;;4.91;61.41;99275.00;5009783;28;20479;-73
2021/04/03 01:26:54;;;;;;;6.55;3.17;;;;;;;4.96;61.54;99275.38;5024131;28;20100;-73
2021/04/03 01:29:31;;;;;;;9.63;3.80;;;;;;;4.85;61.41;99283.69;5025392;28;20029;-73
2021/04/03 01:32:00;;;;;;;7.75;4.03;;;;;;;4.71;61.38;99268.97;5004936;28;20030;-73
2021/04/03 01:34:27;;;;;;;6.93;3.40;;;;;;;4.70;61.82;99286.06;5004848;28;20169;-73
2021/04/03 01:36:58;;;;;;;8.85;3.78;;;;;;;4.68;61.41;99289.88;5005212;28;20038;-72
2021/04/03 01:39:25;;;;;;;6.95;4.10;;;;;;;4.58;61.60;99289.94;5012396;28;20109;-73
2021/04/03 01:41:53;;;;;;;7.68;3.50;;;;;;;4.37;62.50;99282.22;5006419;28;20042;-72
2021/04/03 01:44:24;;;;;;;6.72;3.38;;;;;;;4.21;62.80;99287.41;5005839;28;20030;-73
2021/04/03 01:46:51;;;;;;;6.07;3.40;;;;;;;4.12;63.37;99294.50;5007958;28;20037;-73
2021/04/03 01:49:17;;;;;;;6.43;3.85;;;;;;;3.91;63.74;99286.75;5001292;28;20045;-72
2021/04/03 01:51:47;;;;;;;11.20;3.75;;;;;;;3.86;63.81;99283.66;5007749;28;20038;-73
2021/04/03 01:54:14;;;;;;;11.93;3.58;;;;;;;3.70;64.21;99269.09;5011568;28;20034;-72
2021/04/03 01:56:41;;;;;;;11.68;4.10;;;;;;;3.68;64.37;99273.72;5010970;28;20064;-72
2021/04/03 01:59:08;;;;;;;7.60;3.67;;;;;;;3.63;64.94;99272.50;5003937;28;20026;-72
2021/04/03 02:01:37;;;;;;;8.32;3.90;;;;;;;3.58;65.19;99264.06;4992360;28;20148;-72
2021/04/03 02:04:04;;;;;;;15.05;4.10;;;;;;;3.53;64.52;99269.00;4992097;28;20097;-72
2021/04/03 02:06:30;;;;;;;7.93;4.25;;;;;;;3.40;65.32;99255.97;5014756;28;20022;-72
2021/04/03 02:08:58;;;;;;;7.03;3.60;;;;;;;3.44;65.30;99268.91;5011628;28;20029;-72
2021/04/03 02:11:25;;;;;;;8.15;3.97;;;;;;;3.29;65.77;99265.84;5011449;28;20037;-72
2021/04/03 02:13:50;;;;;;;7.00;3.72;;;;;;;3.31;65.79;99272.91;5007237;28;20395;-72
2021/04/03 02:16:17;;;;;;;12.05;4.18;;;;;;;3.19;65.76;99275.72;4996444;28;20030;-72
2021/04/03 02:18:43;;;;;;;9.23;3.83;;;;;;;3.21;66.36;99287.13;5013348;28;20026;-72
2021/04/03 02:21:09;;;;;;;9.30;3.97;;;;;;;3.14;66.60;99275.31;5014709;28;20025;-72
2021/04/03 02:23:36;;;;;;;10.50;3.72;;;;;;;3.12;66.78;99277.31;4999073;28;20041;-72
2021/04/03 02:26:03;;;;;;;6.07;3.58;;;;;;;3.06;66.86;99269.84;5007683;28;20117;-72
2021/04/03 02:28:28;;;;;;;12.23;4.00;;;;;;;3.06;67.08;99272.53;5015253;28;20030;-72
2021/04/03 02:30:54;;;;;;;6.32;3.53;;;;;;;3.11;66.88;99278.28;5013590;28;20031;-72
2021/04/03 02:33:19;;;;;;;8.95;4.05;;;;;;;2.99;67.49;99266.09;5010953;28;20048;-72
2021/04/03 02:35:45;;;;;;;14.63;3.60;;;;;;;2.97;67.43;99271.56;5009979;28;20429;-72
2021/04/03 02:38:12;;;;;;;8.10;3.95;;;;;;;2.90;67.12;99273.13;5013450;28;20506;-72
2021/04/03 02:40:37;;;;;;;9.35;3.60;;;;;;;2.86;67.88;99274.41;5014654;28;20040;-72
2021/04/03 02:43:19;;;;;;;9.90;4.28;;;;;;;2.79;67.85;99290.16;5013821;28;20399;-74
2021/04/03 02:45:54;;;;;;;7.45;3.75;;;;;;;2.69;68.26;99283.97;5007474;28;20014;-72
2021/04/03 02:48:21;;;;;;;10.60;3.90;;;;;;;2.66;68.29;99291.44;5014286;28;20030;-72
2021/04/03 02:50:51;;;;;;;7.80;3.75;;;;;;;2.57;68.41;99290.44;5009587;28;20365;-72
2021/04/03 02:53:20;;;;;;;7.22;3.45;;;;;;;2.38;68.72;99264.56;5011224;28;20022;-72
2021/04/03 02:55:53;;;;;;;5.90;3.42;;;;;;;2.49;68.46;99295.63;4998371;28;20080;-72
2021/04/03 02:58:21;;;;;;;6.53;3.40;;;;;;;2.49;68.57;99295.63;5013030;28;20511;-72
2021/04/03 03:00:51;;;;;;;10.30;3.17;;;;;;;2.46;68.61;99296.75;5014444;28;20030;-71
2021/04/03 03:03:18;;;;;;;10.63;3.15;;;;;;;2.35;68.58;99287.03;5004473;28;20053;-72
2021/04/03 03:05:45;;;;;;;9.40;3.45;;;;;;;2.25;68.51;99280.84;4995582;28;20033;-72
2021/04/03 03:08:12;;;;;;;9.57;3.20;;;;;;;2.26;69.19;99292.38;5002608;28;20125;-72
2021/04/03 03:10:37;;;;;;;6.40;3.03;;;;;;;2.15;69.23;99296.88;5010268;28;20120;-72
2021/04/03 03:13:07;;;;;;;11.95;3.90;;;;;;;2.24;69.82;99303.19;5010037;28;20113;-72
2021/04/03 03:15:33;;;;;;;8.35;3.80;;;;;;;2.30;70.45;99294.63;4996053;28;20034;-72
2021/04/03 03:18:00;;;;;;;7.00;3.28;;;;;;;2.38;70.66;99291.25;5009169;28;20534;-72
2021/04/03 03:20:27;;;;;;;9.75;4.07;;;;;;;2.32;70.63;99287.31;5014326;28;20022;-72
2021/04/03 03:22:53;;;;;;;8.15;4.30;;;;;;;2.18;71.03;99301.09;5001327;28;20491;-72
2021/04/03 03:25:18;;;;;;;10.43;3.88;;;;;;;2.04;71.28;99298.78;4996488;28;20029;-72
2021/04/03 03:27:47;;;;;;;7.80;3.53;;;;;;;2.17;70.89;99291.38;5002116;28;20585;-72
2021/04/03 03:30:15;;;;;;;8.43;3.88;;;;;;;2.20;70.81;99283.09;5018631;28;20025;-72
2021/04/03 03:32:41;;;;;;;13.15;5.03;;;;;;;2.39;70.42;99288.47;5031645;28;20399;-72
2021/04/03 03:35:07;;;;;;;9.43;4.40;;;;;;;2.40;70.50;99294.63;4997834;28;20030;-72
2021/04/03 03:37:34;;;;;;;10.73;4.55;;;;;;;2.46;71.01;99295.91;5005319;28;20407;-71
2021/04/03 03:40:00;;;;;;;7.18;3.72;;;;;;;2.56;70.70;99299.44;5012607;28;20109;-72
2021/04/03 03:42:26;;;;;;;8.18;4.22;;;;;;;2.65;70.18;99301.28;5013238;28;20120;-72
2021/04/03 03:44:52;;;;;;;10.57;3.65;;;;;;;2.73;70.14;99300.56;5001369;28;20546;-72
2021/04/03 03:47:18;;;;;;;10.93;4.10;;;;;;;2.77;69.77;99291.28;5008281;28;20049;-73
2021/04/03 03:49:43;;;;;;;10.98;4.28;;;;;;;2.79;69.85;99294.66;5013796;28;20372;-72
2021/04/03 03:52:09;;;;;;;11.77;4.65;;;;;;;2.75;69.14;99290.56;5011144;28;20044;-72
2021/04/03 03:54:35;;;;;;;10.95;4.70;;;;;;;2.74;69.15;99308.44;5005948;28;20427;-72
2021/04/03 03:57:01;;;;;;;11.45;4.72;;;;;;;2.77;69.50;99299.28;5027138;28;20028;-73
2021/04/03 03:59:26;;;;;;;7.95;4.35;;;;;;;2.76;69.74;99306.47;5012907;28;20017;-73
2021/04/03 04:01:52;;;;;;;10.75;4.97;;;;;;;2.93;69.13;99288.84;5013486;28;20502;-72
2021/04/03 04:04:17;;;;;;;12.15;4.45;;;;;;;3.09;68.78;99290.94;5011481;28;20104;-72
2021/04/03 04:06:42;;;;;;;9.82;4.35;;;;;;;3.06;68.97;99280.53;5015323;28;20080;-72
2021/04/03 04:09:08;;;;;;;8.40;4.32;;;;;;;2.93;69.40;99296.88;5006219;28;20114;-72
2021/04/03 04:11:33;;;;;;;7.78;4.38;;;;;;;2.95;69.67;99297.59;4999006;28;20093;-73
2021/04/03 04:13:58;;;;;;;9.48;4.25;;;;;;;2.90;69.91;99312.38;5006934;28;20037;-72
2021/04/03 04:16:23;;;;;;;8.88;4.22;;;;;;;2.88;69.94;99308.97;5013112;28;20030;-72
2021/04/03 04:18:49;;;;;;;9.73;4.38;;;;;;;2.95;69.78;99310.09;5007894;28;20388;-72
2021/04/03 04:21:14;;;;;;;8.32;3.88;;;;;;;2.94;69.99;99314.63;5011135;28;20053;-73
2021/04/03 04:23:40;;;;;;;8.90;4.45;;;;;;;2.90;70.06;99305.19;5015055;28;20026;-72
2021/04/03 04:26:05;;;;;;;9.05;3.83;;;;;;;2.86;70.09;99309.16;5013149;28;20025;-72
2021/04/03 04:28:30;;;;;;;6.93;4.25;;;;;;;2.98;70.11;99305.31;5011853;28;20021;-72
2021/04/03 04:30:56;;;;;;;9.68;4.15;;;;;;;2.98;70.11;99317.84;5011457;28;20052;-72
2021/04/03 04:33:21;;;;;;;9.00;3.97;;;;;;;2.95;70.08;99299.41;5011938;28;20372;-73
2021/04/03 04:35:46;;;;;;;16.30;6.75;;;;;;;2.99;69.88;99319.53;5012473;28;20026;-72
2021/04/03 04:38:12;;;;;;;15.05;5.70;;;;;;;3.07;69.94;99314.31;5010229;28;20484;-72
2021/04/03 04:40:37;;;;;;;13.45;5.85;;;;;;;3.04;69.90;99320.81;5011037;28;20026;-73
2021/04/03 04:43:03;;;;;;;9.75;4.75;;;;;;;2.98;70.37;99320.50;5011556;28;20025;-72
2021/04/03 04:45:28;;;;;;;10.40;4.30;;;;;;;3.00;70.55;99322.06;5013274;28;20029;-73
2021/04/03 04:47:53;;;;;;;8.27;3.97;;;;;;;2.97;70.47;99324.19;5012542;28;20038;-73
2021/04/03 04:50:19;;;;;;;11.93;4.10;;;;;;;2.95;70.48;99332.31;5012929;28;20029;-73
2021/04/03 04:52:44;;;;;;;7.05;3.67;;;;;;;2.94;70.62;99327.97;5012184;28;20499;-73
2021/04/03 04:55:10;;;;;;;11.82;3.72;;;;;;;2.90;70.62;99323.06;5012144;28;20044;-73
2021/04/03 04:57:35;;;;;;;16.17;4.53;;;;;;;2.92;70.60;99329.94;5028177;28;20029;-73
2021/04/03 05:00:01;;;;;;;7.22;3.90;;;;;;;2.70;70.30;99301.69;5013168;28;20030;-75
2021/04/03 05:02:27;;;;;;;10.65;3.97;;;;;;;2.97;70.33;99329.53;5009434;28;20468;-75
2021/04/03 05:04:52;;;;;;;8.35;4.38;;;;;;;2.89;70.41;99319.53;5010673;28;20072;-78
2021/04/03 05:07:18;;;;;;;9.68;4.13;;;;;;;2.95;70.46;99332.31;5006511;28;20511;-76
2021/04/03 05:09:44;;;;;;;9.20;3.97;;;;;;;2.71;70.84;99330.09;4998414;28;20053;-77
2021/04/03 05:12:09;;;;;;;11.07;4.55;;;;;;;2.56;71.70;99326.13;4994622;28;20022;-78
2021/04/03 05:14:35;;;;;;;6.75;3.90;;;;;;;2.38;72.10;99328.66;5007105;28;20034;-77
2021/04/03 05:17:00;;;;;;;10.00;4.32;;;;;;;2.35;72.71;99324.41;5026031;28;20486;-78
2021/04/03 05:19:26;;;;;;;12.05;4.50;;;;;;;2.38;72.66;99350.00;5012112;28;20025;-78
2021/04/03 05:21:52;;;;;;;9.68;4.20;;;;;;;2.36;72.82;99352.84;5028119;28;20030;-79
2021/04/03 05:24:17;;;;;;;10.93;4.50;;;;;;;2.23;72.18;99330.88;5005407;28;20109;-78
2021/04/03 05:26:44;;;;;;;9.27;4.28;;;;;;;2.38;72.40;99358.88;5002906;28;20064;-79
2021/04/03 05:29:09;;;;;;;9.70;3.88;;;;;;;2.57;72.12;99362.56;5012933;28;20054;-78
2021/04/03 05:31:34;;;;;;;11.10;4.18;;;;;;;3.11;69.75;99355.81;5014380;28;20141;-80
2021/04/03 05:34:00;;;;;;;8.57;3.22;;;;;;;4.70;65.13;99360.25;5009616;28;20563;-71
2021/04/03 05:36:25;;;;;;;8.20;3.35;;;;;;;6.26;59.47;99333.53;5006416;28;20468;-70
2021/04/03 05:38:50;;;;;;;11.88;3.63;;;;;;;7.62;55.83;99354.66;5003858;28;20376;-71
2021/04/03 05:41:16;;;;;;;7.00;3.30;;;;;;;8.42;54.71;99364.53;5005275;28;20061;-71
2021/04/03 05:43:46;;;;;;;8.10;2.95;;;;;;;8.95;52.79;99366.41;5011106;28;20073;-71
2021/04/03 05:46:11;;;;;;;6.38;3.08;;;;;;;9.58;51.11;99369.78;5007409;28;20096;-76
2021/04/03 05:48:38;;;;;;;8.00;2.55;;;;;;;9.63;50.38;99366.56;5003003;28;20443;-75
2021/04/03 05:51:04;;;;;;;5.07;3.08;;;;;;;10.39;49.10;99377.25;5012653;28;20030;-75
2021/04/03 05:53:29;;;;;;;6.00;3.30;;;;;;;10.42;48.36;99366.88;5030278;28;20030;-75
2021/04/03 05:55:56;;;;;;;6.60;2.95;;;;;;;10.72;47.74;99367.69;5013911;28;20029;-73
2021/04/03 05:58:21;;;;;;;5.55;2.95;;;;;;;11.45;46.07;99373.00;5031358;28;20081;-72
2021/04/03 06:00:48;;;;;;;10.40;3.03;;;;;;;11.74;45.77;99374.72;5005341;28;20495;-72
2021/04/03 06:03:16;;;;;;;7.63;3.20;;;;;;;12.72;44.13;99377.38;5009037;28;20033;-70
2021/04/03 06:05:43;;;;;;;11.60;3.78;;;;;;;12.48;44.57;99366.00;5003642;28;20068;-69
2021/04/03 06:08:08;;;;;;;11.40;3.63;;;;;;;12.85;44.02;99369.28;5012667;28;20097;-69
2021/04/03 06:10:34;;;;;;;8.70;3.80;;;;;;;12.93;43.62;99373.69;5005145;28;20038;-69
2021/04/03 06:12:59;;;;;;;9.45;3.88;;;;;;;13.50;42.88;99358.75;5022615;28;20036;-69
2021/04/03 06:15:24;;;;;;;10.50;3.70;;;;;;;13.76;42.10;99374.22;5015907;28;20028;-69
2021/04/03 06:17:57;;;;;;;9.02;3.55;;;;;;;14.60;40.97;99363.63;5013659;28;20439;-70
2021/04/03 06:20:42;;;;;;;6.55;2.78;;;;;;;15.26;38.93;99376.03;5008791;28;20037;-69
2021/04/03 06:23:09;;;;;;;4.68;2.80;;;;;;;15.05;39.29;99382.66;5006535;28;20017;-69
2021/04/03 06:25:53;;;;;;;5.57;2.80;;;;;;;16.00;38.07;99379.88;5012396;28;20057;-69
2021/04/03 06:28:26;;;;;;;6.55;2.92;;;;;;;15.66;38.18;99376.56;5006788;28;20022;-69
2021/04/03 06:30:51;;;;;;;4.82;2.80;;;;;;;15.87;37.77;99380.84;5018272;28;20026;-69
2021/04/03 06:33:20;;;;;;;8.13;2.90;;;;;;;16.71;36.44;99373.00;5012666;28;20038;-77
2021/04/03 06:36:07;;;;;;;6.95;2.47;;;;;;;17.60;35.44;99373.25;5014131;28;20036;-76
2021/04/03 06:38:33;;;;;;;5.18;2.63;;;;;;;17.48;35.66;99386.06;5015160;28;20052;-77
2021/04/03 06:41:34;;;;;;;6.07;2.25;;;;;;;17.34;35.19;99376.38;5010154;28;20112;-73
2021/04/03 06:44:04;;;;;;;6.10;2.58;;;;;;;17.63;35.32;99371.94;4950158;28;20508;-70
2021/04/03 06:46:29;;;;;;;4.50;2.30;;;;;;;16.54;36.75;99367.34;5002677;28;20132;-70
2021/04/03 06:48:56;;;;;;;4.47;2.30;;;;;;;16.92;36.47;99368.97;5017722;28;20113;-69
2021/04/03 06:51:23;;;;;;;4.75;1.63;;;;;;;16.35;36.37;99374.69;5015440;28;20029;-75
2021/04/03 06:53:50;;;;;;;7.35;1.90;;;;;;;16.31;35.44;99367.19;5006116;28;20033;-76
2021/04/03 06:56:26;;;;;;;6.10;2.03;;;;;;;17.45;34.31;99376.44;5007984;28;20105;-77
2021/04/03 06:58:59;;;;;;;7.10;1.90;;;;;;;16.40;35.38;99384.94;5025464;28;20037;-75
2021/04/03 07:01:26;;;;;;;7.53;2.00;;;;;;;16.15;36.13;99377.63;5009548;28;20014;-76
2021/04/03 07:03:56;;;;;;;5.40;1.30;;;;;;;17.73;33.39;99378.50;5005138;28;20031;-72
2021/04/03 07:06:25;;;;;;;7.68;1.70;;;;;;;17.33;34.15;99394.69;5001945;28;20484;-72
2021/04/03 07:08:51;;;;;;;3.28;1.42;;;;;;;15.85;36.61;99398.47;5002362;28;20431;-71
2021/04/03 07:11:17;;;;;;;4.45;1.52;;;;;;;14.64;38.61;99405.69;5001160;28;20034;-72
2021/04/03 07:13:45;;;;;;;4.57;1.30;;;;;;;15.16;37.66;99402.94;5007945;28;20391;-72
2021/04/03 07:16:11;;;;;;;5.90;1.50;;;;;;;16.30;36.14;99396.41;5002636;28;20396;-72
2021/04/03 07:18:40;;;;;;;5.20;1.42;;;;;;;15.67;36.44;99400.09;5008007;28;20032;-71
2021/04/03 07:21:07;;;;;;;5.00;1.80;;;;;;;15.77;36.43;99399.59;5024464;28;20080;-72
2021/04/03 07:23:35;;;;;;;4.45;1.35;;;;;;;18.21;33.35;99406.78;5008187;28;20038;-72
2021/04/03 07:26:02;;;;;;;5.30;1.40;;;;;;;17.56;33.98;99406.78;5004024;28;20511;-72
2021/04/03 07:28:41;;;;;;;4.55;1.60;;;;;;;16.67;34.80;99418.25;5003766;28;20038;-72
2021/04/03 07:31:07;;;;;;;5.75;1.70;;;;;;;14.55;37.57;99417.88;4999842;28;20029;-71
2021/04/03 07:33:33;;;;;;;7.50;1.63;;;;;;;15.18;37.00;99423.47;5007643;28;21767;-75
2021/04/03 07:36:07;;;;;;;2.97;1.30;;;;;;;15.01;37.46;99431.34;5016829;28;20037;-75
2021/04/03 07:38:37;;;;;;;3.83;1.08;;;;;;;14.77;37.54;99437.50;5013721;28;20030;-75
2021/04/03 07:41:03;;;;;;;4.18;1.30;;;;;;;12.96;40.04;99443.06;5013906;28;20064;-74
2021/04/03 07:43:29;;;;;;;3.85;1.20;;;;;;;13.95;38.91;99443.25;5009411;28;20042;-76
2021/04/03 07:45:55;;;;;;;2.53;1.30;;;;;;;15.65;36.18;99434.09;5021257;28;20083;-74
2021/04/03 07:48:58;;;;;;;4.75;1.42;;;;;;;16.86;34.66;99435.50;5028737;28;20044;-74
2021/04/03 07:51:23;;;;;;;3.15;1.40;;;;;;;16.97;34.14;99445.66;5010325;28;20045;-68
2021/04/03 07:53:53;;;;;;;7.28;1.17;;;;;;;19.48;31.32;99436.03;5001528;28;20043;-72
2021/04/03 07:56:24;;;;;;;5.78;1.90;;;;;;;18.24;32.29;99438.34;5013194;28;20454;-73
2021/04/03 07:58:50;;;;;;;5.18;1.45;;;;;;;19.86;31.07;99448.28;5013515;28;20108;-74
2021/04/03 08:01:17;;;;;;;6.07;1.25;;;;;;;19.65;30.73;99440.75;5014175;28;20044;-74
2021/04/03 08:03:53;;;;;;;5.80;1.60;;;;;;;19.82;30.95;99440.78;5009344;28;20544;-71
2021/04/03 08:06:27;;;;;;;4.28;1.35;;;;;;;17.57;32.67;99446.75;5011795;28;20033;-70
2021/04/03 08:08:53;;;;;;;6.78;1.65;;;;;;;18.79;31.69;99455.25;5014182;28;20025;-73
2021/04/03 08:11:18;;;;;;;5.38;1.60;;;;;;;20.91;29.72;99451.28;5012075;28;20060;-70
2021/04/03 08:13:49;;;;;;;5.35;1.60;;;;;;;19.90;30.13;99460.44;5009689;28;20041;-73
2021/04/03 08:16:16;;;;;;;4.70;1.17;;;;;;;19.14;30.75;99459.78;5009516;28;20029;-73
2021/04/03 08:18:44;;;;;;;9.80;1.73;;;;;;;20.50;29.60;99449.84;5000987;28;20034;-73
2021/04/03 08:21:10;;;;;;;5.10;1.13;;;;;;;19.14;30.31;99458.97;4997176;28;20089;-73
2021/04/03 08:23:50;;;;;;;3.63;1.40;;;;;;;20.35;30.44;99473.25;5001429;28;20030;-74
2021/04/03 08:26:17;;;;;;;7.40;1.50;;;;;;;19.45;29.45;99463.97;5009281;28;20049;-73
2021/04/03 08:28:42;;;;;;;10.55;1.60;;;;;;;20.98;28.67;99467.56;5000423;28;20396;-74
2021/04/03 08:31:24;;;;;;;2.60;1.30;;;;;;;19.12;30.06;99472.91;5028483;28;20036;-70
2021/04/03 08:33:52;;;;;;;3.08;1.20;;;;;;;18.05;32.12;99487.75;5001254;28;20034;-73
2021/04/03 08:36:28;;;;;;;5.22;1.58;;;;;;;19.24;30.73;99473.72;5010032;28;20075;-76
2021/04/03 08:38:56;;;;;;;4.03;1.35;;;;;;;20.39;29.10;99470.84;5008788;28;20033;-75
2021/04/03 08:41:27;;;;;;;5.00;1.33;;;;;;;17.55;31.49;99479.81;5011647;28;20152;-76
2021/04/03 08:43:55;;;;;;;3.78;1.63;;;;;;;20.44;28.86;99475.59;5027352;28;20493;-76
2021/04/03 08:46:21;;;;;;;3.63;1.60;;;;;;;21.40;27.85;99472.50;5006955;28;20037;-75
2021/04/03 08:48:54;;;;;;;3.70;1.52;;;;;;;21.72;27.60;99469.84;5012578;28;20026;-76
2021/04/03 08:51:19;;;;;;;4.75;1.58;;;;;;;21.86;27.44;99465.56;5013008;28;20383;-75
2021/04/03 08:53:48;;;;;;;5.40;1.25;;;;;;;22.88;27.09;99479.31;5011563;28;20036;-75
2021/04/03 08:56:31;;;;;;;2.38;1.25;;;;;;;22.22;26.77;99473.34;5012215;28;20029;-75
2021/04/03 08:58:59;;;;;;;4.47;1.27;;;;;;;22.34;26.73;99478.66;5011755;28;20045;-71
2021/04/03 09:01:27;;;;;;;3.85;1.52;;;;;;;21.56;27.51;99481.78;5011009;28;20432;-70
2021/04/03 09:03:57;;;;;;;2.95;1.25;;;;;;;23.33;26.41;99475.09;4993176;28;20057;-70
2021/04/03 09:06:43;;;;;;;5.53;1.55;;;;;;;23.41;25.88;99480.09;5010889;28;20023;-70
2021/04/03 09:09:11;;;;;;;3.17;1.35;;;;;;;23.49;25.71;99480.69;5006823;28;20026;-70
2021/04/03 09:11:37;;;;;;;4.32;1.60;;;;;;;22.54;26.81;99476.06;5022947;28;20049;-70
2021/04/03 09:14:03;;;;;;;3.45;1.55;;;;;;;21.63;27.93;99488.75;5022723;28;20021;-70
2021/04/03 09:16:37;;;;;;;3.25;1.70;;;;;;;22.75;26.87;99477.03;5019084;28;20042;-71
2021/04/03 09:19:03;;;;;;;3.58;1.85;;;;;;;24.55;24.98;99481.94;5012488;28;20022;-70
2021/04/03 09:21:29;;;;;;;6.45;1.60;;;;;;;22.94;26.07;99477.38;5020659;28;20040;-70
2021/04/03 09:23:54;;;;;;;5.10;1.48;;;;;;;22.89;25.68;99482.88;5021243;28;20056;-70
2021/04/03 09:26:31;;;;;;;5.18;1.40;;;;;;;23.63;25.90;99476.28;5011463;28;20061;-70
2021/04/03 09:29:04;;;;;;;5.35;1.70;;;;;;;22.03;27.56;99482.00;5030236;28;20021;-70
2021/04/03 09:31:45;;;;;;;4.32;1.10;;;;;;;24.05;25.66;99478.03;5021506;28;20026;-71
2021/04/03 09:34:15;;;;;;;6.45;1.63;;;;;;;25.58;24.77;99474.09;5009626;28;20089;-70
2021/04/03 09:36:45;;;;;;;7.70;1.85;;;;;;;24.47;24.90;99485.25;5012622;28;20030;-71
2021/04/03 09:39:16;;;;;;;4.82;1.60;;;;;;;23.51;25.83;99478.47;5010790;28;20479;-70
2021/04/03 09:41:54;;;;;;;4.82;1.50;;;;;;;21.95;27.45;99482.44;5006189;28;20418;-70
2021/04/03 09:44:20;;;;;;;7.07;1.48;;;;;;;20.65;28.79;99466.59;5003342;28;20431;-70
2021/04/03 09:46:46;;;;;;;5.25;1.58;;;;;;;18.34;31.60;99485.97;4997568;28;20037;-71
2021/04/03 09:49:12;;;;;;;6.68;1.73;;;;;;;18.25;32.53;99503.00;5013031;28;20053;-71
2021/04/03 09:51:38;;;;;;;5.45;1.48;;;;;;;20.86;29.20;99473.22;5013244;28;20605;-71
2021/04/03 09:54:04;;;;;;;3.20;1.40;;;;;;;23.30;27.01;99472.06;5007458;28;20026;-70
2021/04/03 09:56:30;;;;;;;4.45;1.45;;;;;;;23.16;26.67;99480.00;5010418;28;20036;-71
2021/04/03 09:58:58;;;;;;;5.40;1.45;;;;;;;22.70;27.05;99483.34;5007457;28;20034;-71
2021/04/03 10:01:23;;;;;;;5.97;1.80;;;;;;;23.74;26.14;99482.72;5011932;28;20030;-71
2021/04/03 10:03:49;;;;;;;12.73;4.57;;;;;;;24.23;26.20;99483.03;4999896;28;20045;-71
2021/04/03 10:06:14;;;;;;;4.82;1.60;;;;;;;24.49;25.00;99470.03;5006855;28;20026;-71
2021/04/03 10:08:39;;;;;;;3.67;1.45;;;;;;;25.76;23.77;99480.94;5005036;28;20124;-71
2021/04/03 10:11:05;;;;;;;4.15;1.67;;;;;;;24.73;24.77;99483.25;4994035;28;20408;-70
2021/04/03 10:13:30;;;;;;;6.75;1.70;;;;;;;23.94;25.67;99484.66;5011837;28;20411;-71
2021/04/03 10:15:56;;;;;;;5.10;1.45;;;;;;;23.35;25.18;99489.47;5022408;28;20076;-72
2021/04/03 10:18:21;;;;;;;8.20;1.40;;;;;;;23.81;25.44;99486.84;5021859;28;20062;-72
2021/04/03 10:20:46;;;;;;;3.40;1.67;;;;;;;23.71;25.81;99477.69;5016871;28;20042;-72
2021/04/03 10:23:12;;;;;;;4.28;1.63;;;;;;;24.37;24.45;99475.00;5019221;28;20085;-71
2021/04/03 10:25:37;;;;;;;3.42;1.55;;;;;;;23.27;26.03;99483.66;5018879;28;20093;-72
2021/04/03 10:28:02;;;;;;;3.10;1.58;;;;;;;23.74;26.01;99482.72;5013912;28;20105;-72
2021/04/03 10:30:28;;;;;;;6.22;1.80;;;;;;;22.36;27.12;99493.84;5015995;28;20048;-70
2021/04/03 10:32:53;;;;;;;3.83;1.58;;;;;;;20.16;28.96;99491.09;5023867;28;20101;-70
2021/04/03 10:35:19;;;;;;;4.97;2.33;;;;;;;18.58;31.49;99489.56;5018905;28;20026;-70
2021/04/03 10:37:44;;;;;;;2.83;1.60;;;;;;;19.98;30.38;99489.41;5013817;28;20038;-70
2021/04/03 10:40:09;;;;;;;3.95;1.45;;;;;;;22.57;27.27;99497.59;5005075;28;20107;-70
2021/04/03 10:42:35;;;;;;;2.90;1.40;;;;;;;24.52;25.37;99489.94;5015729;28;20026;-72
2021/04/03 10:45:00;;;;;;;5.45;1.27;;;;;;;22.45;26.73;99492.28;5028057;28;20033;-71
2021/04/03 10:47:27;;;;;;;4.03;1.40;;;;;;;18.76;30.36;99491.38;5042141;28;20068;-70
2021/04/03 10:49:52;;;;;;;3.80;1.40;;;;;;;19.39;30.53;99483.34;5014507;28;20033;-69
2021/04/03 10:52:17;;;;;;;3.78;1.25;;;;;;;21.45;27.79;99483.59;5003616;28;20037;-70
2021/04/03 10:54:43;;;;;;;5.70;1.60;;;;;;;23.13;26.51;99486.06;5027588;28;20041;-72
2021/04/03 10:57:08;;;;;;;3.08;1.52;;;;;;;23.35;26.08;99481.19;5007384;28;20036;-70
2021/04/03 10:59:33;;;;;;;3.38;1.50;;;;;;;24.55;24.31;99483.84;5010783;28;20045;-72
2021/04/03 11:01:58;;;;;;;3.22;1.40;;;;;;;25.16;24.54;99478.19;5000984;28;20046;-72
2021/04/03 11:04:24;;;;;;;2.90;1.30;;;;;;;25.40;24.83;99472.00;5007161;28;20026;-72
2021/04/03 11:06:50;;;;;;;3.38;1.17;;;;;;;24.92;23.55;99486.28;5010602;28;20414;-72
2021/04/03 11:09:15;;;;;;;3.65;1.30;;;;;;;24.48;23.82;99487.75;5008936;28;20041;-75
2021/04/03 11:11:40;;;;;;;3.40;1.38;;;;;;;24.97;24.10;99472.44;5002244;28;20117;-75
2021/04/03 11:14:05;;;;;;;2.60;1.10;;;;;;;23.89;24.62;99479.13;5007017;28;20034;-75
2021/04/03 11:16:31;;;;;;;4.47;1.10;;;;;;;24.37;24.28;99475.00;5015773;28;20423;-76
2021/04/03 11:18:57;;;;;;;2.53;0.98;;;;;;;23.34;25.60;99479.53;4999220;28;20026;-75
2021/04/03 11:21:23;;;;;;;1.58;1.23;;;;;;;23.23;25.99;99482.53;5006359;28;20119;-75
2021/04/03 11:23:50;;;;;;;4.90;1.38;;;;;;;23.16;25.77;99489.13;5007354;28;20387;-75
2021/04/03 11:26:16;;;;;;;3.47;1.30;;;;;;;22.45;25.24;99494.19;5010597;28;20037;-76
2021/04/03 11:28:41;;;;;;;2.58;1.13;;;;;;;23.52;24.79;99472.66;5004664;28;20110;-75
2021/04/03 11:31:07;;;;;;;2.17;1.30;;;;;;;24.35;24.09;99479.16;4997457;28;20026;-75
2021/04/03 11:33:32;;;;;;;3.60;1.23;;;;;;;23.43;24.50;99481.78;4991883;28;20038;-75
2021/04/03 11:35:57;;;;;;;2.97;1.00;;;;;;;22.07;25.04;99482.28;5010856;28;20030;-76
2021/04/03 11:38:23;;;;;;;3.88;0.90;;;;;;;21.20;25.92;99473.91;4999390;28;20492;-75
2021/04/03 11:40:48;;;;;;;2.13;1.00;;;;;;;17.56;28.86;99497.91;5009969;28;20029;-75